createdAt,value
2024-02-08T00:00:46.889Z,48.68
2024-02-08T00:03:51.263Z,48.87
2024-02-08T00:06:53.729Z,48.71
2024-02-08T00:09:58.929Z,48.60
2024-02-08T00:13:01.378Z,48.75
2024-02-08T00:16:04.081Z,49.02
2024-02-08T00:19:06.675Z,48.71
2024-02-08T00:22:09.806Z,49.11
2024-02-08T00:25:12.176Z,49.03
2024-02-08T00:28:14.904Z,49.00
2024-02-08T00:31:17.267Z,49.33
2024-02-08T00:34:19.856Z,49.14
2024-02-08T00:37:22.446Z,48.68
2024-02-08T00:40:25.578Z,49.06
2024-02-08T00:43:28.169Z,48.69
2024-02-08T00:46:30.643Z,49.04
2024-02-08T00:49:33.044Z,49.09
2024-02-08T00:52:35.533Z,49.14
2024-02-08T00:55:38.057Z,49.09
2024-02-08T00:58:40.641Z,49.21
2024-02-08T01:01:43.167Z,49.12
2024-02-08T01:04:50.568Z,49.30
2024-02-08T01:07:53.150Z,49.29
2024-02-08T01:10:55.754Z,49.06
2024-02-08T01:13:58.910Z,49.48
2024-02-08T01:17:01.452Z,49.04
2024-02-08T01:20:08.018Z,49.13
2024-02-08T01:23:11.195Z,49.06
2024-02-08T01:26:13.914Z,49.10
2024-02-08T01:29:16.928Z,49.32
2024-02-08T01:32:21.425Z,49.10
2024-02-08T01:35:24.706Z,49.31
2024-02-08T01:38:28.790Z,49.32
2024-02-08T01:41:31.257Z,49.21
2024-02-08T01:44:33.683Z,49.53
2024-02-08T01:47:36.185Z,49.63
2024-02-08T01:50:42.022Z,49.53
2024-02-08T01:53:45.379Z,49.40
2024-02-08T01:56:51.895Z,49.52
2024-02-08T01:59:54.921Z,49.63
2024-02-08T02:03:02.185Z,49.57
2024-02-08T02:06:09.667Z,49.51
2024-02-08T02:09:13.103Z,49.39
2024-02-08T02:12:18.004Z,49.69
2024-02-08T02:15:20.655Z,49.47
2024-02-08T02:18:23.182Z,49.70
2024-02-08T02:21:26.138Z,49.64
2024-02-08T02:24:28.653Z,49.46
2024-02-08T02:27:31.197Z,49.59
2024-02-08T02:30:35.985Z,49.62
2024-02-08T02:33:38.527Z,49.48
2024-02-08T02:36:46.104Z,49.67
2024-02-08T02:39:48.575Z,49.59
2024-02-08T02:42:55.414Z,49.54
2024-02-08T02:45:57.834Z,49.44
2024-02-08T02:49:00.327Z,49.61
2024-02-08T02:52:02.988Z,49.45
2024-02-08T02:55:05.757Z,49.53
2024-02-08T02:58:08.117Z,49.81
2024-02-08T03:01:10.570Z,49.72
2024-02-08T03:04:13.040Z,49.71
2024-02-08T03:07:15.648Z,49.47
2024-02-08T03:10:21.962Z,49.42
2024-02-08T03:13:24.457Z,49.44
2024-02-08T03:16:29.589Z,49.46
2024-02-08T03:19:37.093Z,49.08
2024-02-08T03:22:40.163Z,48.95
2024-02-08T03:25:42.724Z,48.68
2024-02-08T03:28:45.610Z,48.36
2024-02-08T03:31:48.152Z,48.30
2024-02-08T03:34:53.942Z,48.11
2024-02-08T03:37:56.918Z,47.54
2024-02-08T03:40:59.570Z,47.35
2024-02-08T03:44:03.963Z,46.97
2024-02-08T03:47:10.662Z,46.50
2024-02-08T03:50:13.643Z,46.21
2024-02-08T03:53:19.209Z,45.99
2024-02-08T03:56:33.036Z,45.83
2024-02-08T03:59:39.016Z,45.29
2024-02-08T04:02:45.075Z,45.09
2024-02-08T04:05:47.448Z,45.08
2024-02-08T04:09:10.797Z,44.71
2024-02-08T04:12:32.022Z,44.75
2024-02-08T04:15:52.874Z,44.13
2024-02-08T04:19:13.933Z,43.96
2024-02-08T04:22:34.999Z,44.05
2024-02-08T04:25:56.057Z,43.79
2024-02-08T04:29:17.023Z,43.66
2024-02-08T04:32:38.256Z,43.12
2024-02-08T04:35:59.328Z,42.97
2024-02-08T04:42:41.029Z,42.49
2024-02-08T04:46:02.059Z,42.45
2024-02-08T04:49:22.977Z,42.43
2024-02-08T04:52:43.879Z,42.44
2024-02-08T04:55:47.263Z,41.68
2024-02-08T04:59:11.032Z,41.91
2024-02-08T05:02:15.535Z,41.81
2024-02-08T05:05:20.701Z,41.90
2024-02-08T05:08:23.359Z,41.68
2024-02-08T05:11:25.786Z,41.68
2024-02-08T05:14:28.393Z,41.54
2024-02-08T05:17:31.311Z,41.38
2024-02-08T05:20:37.333Z,41.52
2024-02-08T05:23:40.237Z,41.86
2024-02-08T05:26:42.751Z,42.04
2024-02-08T05:29:47.927Z,42.29
2024-02-08T05:32:50.470Z,42.28
2024-02-08T05:35:57.959Z,42.26
2024-02-08T05:39:00.429Z,42.16
2024-02-08T05:42:03.751Z,41.99
2024-02-08T05:45:21.880Z,42.21
2024-02-08T05:48:28.899Z,41.75
2024-02-08T05:51:32.914Z,42.08
2024-02-08T05:54:38.624Z,41.63
2024-02-08T05:57:45.802Z,41.92
2024-02-08T06:00:54.615Z,41.62
2024-02-08T06:04:01.508Z,40.71
2024-02-08T06:07:07.244Z,40.84
2024-02-08T06:10:16.669Z,40.73
2024-02-08T06:13:23.878Z,37.94
2024-02-08T06:16:50.578Z,38.58
2024-02-08T06:19:53.382Z,39.54
2024-02-08T06:22:56.610Z,39.80
2024-02-08T06:26:12.159Z,39.59
2024-02-08T06:29:21.819Z,39.68
2024-02-08T06:32:38.193Z,39.60
2024-02-08T06:35:46.367Z,39.47
2024-02-08T06:38:54.902Z,39.98
2024-02-08T06:42:09.107Z,39.88
2024-02-08T06:45:46.091Z,40.20
2024-02-08T06:49:11.613Z,40.52
2024-02-08T06:52:33.215Z,40.98
2024-02-08T06:55:54.132Z,41.12
2024-02-08T06:59:15.356Z,41.11
2024-02-08T07:02:37.720Z,41.42
2024-02-08T07:06:01.158Z,41.49
2024-02-08T07:09:22.298Z,40.37
2024-02-08T07:12:50.088Z,41.32
2024-02-08T07:16:11.086Z,41.38
2024-02-08T07:19:32.047Z,41.61
2024-02-08T07:22:53.362Z,42.24
2024-02-08T07:26:14.190Z,42.19
2024-02-08T07:29:35.241Z,43.04
2024-02-08T07:32:56.336Z,43.13
2024-02-08T07:36:19.306Z,43.35
2024-02-08T07:39:31.612Z,43.50
2024-02-08T07:42:36.450Z,43.99
2024-02-08T07:45:39.113Z,43.91
2024-02-08T07:48:45.206Z,43.93
2024-02-08T07:51:52.776Z,44.38
2024-02-08T07:55:15.789Z,44.68
2024-02-08T07:58:20.175Z,44.59
2024-02-08T08:01:22.918Z,45.04
2024-02-08T08:04:53.097Z,45.34
2024-02-08T08:08:01.322Z,45.50
2024-02-08T08:11:06.868Z,46.17
2024-02-08T08:14:10.980Z,46.44
2024-02-08T08:17:16.758Z,46.37
2024-02-08T08:20:37.940Z,46.56
2024-02-08T08:24:00.433Z,46.60
2024-02-08T08:27:08.233Z,46.85
2024-02-08T08:30:12.837Z,46.84
2024-02-08T08:33:35.353Z,47.01
2024-02-08T08:36:43.335Z,47.35
2024-02-08T08:40:02.168Z,47.04
2024-02-08T08:43:11.664Z,47.44
2024-02-08T08:46:14.567Z,47.69
2024-02-08T08:49:22.528Z,47.19
2024-02-08T08:52:25.702Z,47.32
2024-02-08T08:55:28.579Z,47.58
2024-02-08T08:58:51.412Z,47.39
2024-02-08T09:01:56.829Z,47.43
2024-02-08T09:05:10.971Z,47.35
2024-02-08T09:08:23.490Z,47.67
2024-02-08T09:11:27.214Z,47.62
2024-02-08T09:14:33.804Z,47.71
2024-02-08T09:17:53.298Z,47.56
2024-02-08T09:20:58.227Z,47.52
2024-02-08T09:24:07.936Z,47.74
2024-02-08T09:27:21.008Z,47.98
2024-02-08T09:30:39.893Z,48.14
2024-02-08T09:33:47.257Z,48.29
2024-02-08T09:36:50.429Z,48.28
2024-02-08T09:40:00.627Z,48.27
2024-02-08T09:43:18.534Z,48.18
2024-02-08T09:46:35.447Z,48.36
2024-02-08T09:49:40.143Z,48.02
2024-02-08T09:53:01.486Z,48.28
2024-02-08T09:56:27.072Z,47.30
2024-02-08T10:00:05.591Z,47.00
2024-02-08T10:03:33.278Z,45.54
2024-02-08T10:06:43.257Z,45.59
2024-02-08T10:09:49.160Z,45.95
2024-02-08T10:13:07.331Z,45.65
2024-02-08T10:16:14.374Z,45.00
2024-02-08T10:19:48.843Z,43.96
2024-02-08T10:23:10.059Z,44.17
2024-02-08T10:26:22.655Z,44.17
2024-02-08T10:29:26.505Z,44.14
2024-02-08T10:32:30.636Z,44.35
2024-02-08T10:35:40.698Z,44.24
2024-02-08T10:38:59.472Z,44.04
2024-02-08T10:42:04.834Z,44.21
2024-02-08T10:45:07.781Z,44.70
2024-02-08T10:48:15.259Z,44.47
2024-02-08T10:51:27.472Z,45.04
2024-02-08T10:54:44.274Z,44.93
2024-02-08T10:58:23.642Z,45.06
2024-02-08T11:01:39.132Z,45.38
2024-02-08T11:04:42.915Z,45.48
2024-02-08T11:07:49.604Z,45.76
2024-02-08T11:11:00.473Z,45.72
2024-02-08T11:14:09.665Z,45.88
2024-02-08T11:17:21.445Z,46.14
2024-02-08T11:20:46.450Z,46.00
2024-02-08T11:26:59.648Z,46.17
2024-02-08T11:30:02.129Z,46.26
2024-02-08T11:33:05.529Z,46.50
2024-02-08T11:36:15.951Z,46.54
2024-02-08T11:39:33.103Z,46.62
2024-02-08T11:42:38.482Z,46.64
2024-02-08T11:45:53.694Z,46.50
2024-02-08T11:49:11.091Z,46.44
2024-02-08T11:52:23.331Z,46.59
2024-02-08T11:55:26.089Z,46.86
2024-02-08T11:58:31.318Z,46.90
2024-02-08T12:01:34.799Z,46.84
2024-02-08T12:04:39.546Z,46.95
2024-02-08T12:07:46.891Z,47.06
2024-02-08T12:10:51.032Z,47.57
2024-02-08T12:13:59.194Z,47.66
2024-02-08T12:17:08.039Z,47.79
2024-02-08T12:20:11.448Z,48.18
2024-02-08T12:23:17.901Z,47.93
2024-02-08T12:26:23.666Z,47.80
2024-02-08T12:29:27.236Z,47.64
2024-02-08T12:32:32.228Z,47.42
2024-02-08T12:35:37.110Z,47.52
2024-02-08T12:38:39.792Z,47.22
2024-02-08T12:41:42.186Z,47.47
2024-02-08T12:44:50.533Z,47.89
2024-02-08T12:47:53.760Z,47.88
2024-02-08T12:50:56.769Z,47.88
2024-02-08T12:54:03.614Z,47.79
2024-02-08T12:57:14.305Z,47.64
2024-02-08T13:00:22.919Z,47.45
2024-02-08T13:03:27.706Z,47.34
2024-02-08T13:06:30.322Z,47.42
2024-02-08T13:09:38.675Z,47.39
2024-02-08T13:12:44.415Z,47.22
2024-02-08T13:15:46.931Z,47.13
2024-02-08T13:18:56.385Z,47.51
2024-02-08T13:21:59.234Z,47.38
2024-02-08T13:25:01.827Z,47.54
2024-02-08T13:28:04.542Z,47.66
2024-02-08T13:31:10.230Z,47.69
2024-02-08T13:34:15.049Z,47.65
2024-02-08T13:37:23.516Z,47.51
2024-02-08T13:40:27.154Z,47.55
2024-02-08T13:43:31.905Z,47.72
2024-02-08T13:46:37.893Z,47.73
2024-02-08T13:49:41.085Z,47.88
2024-02-08T13:52:43.862Z,48.08
2024-02-08T13:55:54.329Z,48.13
2024-02-08T13:59:01.908Z,48.18
2024-02-08T14:02:05.855Z,48.50
2024-02-08T14:05:18.314Z,48.40
2024-02-08T14:08:25.408Z,48.37
2024-02-08T14:11:28.483Z,48.50
2024-02-08T14:14:41.839Z,48.37
2024-02-08T14:17:55.439Z,48.14
2024-02-08T14:20:59.619Z,48.47
2024-02-08T14:24:03.549Z,48.63
2024-02-08T14:27:07.084Z,48.58
2024-02-08T14:30:10.081Z,48.52
2024-02-08T14:33:12.898Z,48.83
2024-02-08T14:36:15.926Z,48.84
2024-02-08T14:39:29.425Z,48.39
2024-02-08T14:42:38.514Z,48.38
2024-02-08T14:45:41.009Z,48.42
2024-02-08T14:48:43.461Z,48.01
2024-02-08T14:51:49.753Z,48.04
2024-02-08T14:55:14.217Z,47.96
2024-02-08T14:58:37.019Z,47.80
2024-02-08T15:01:40.170Z,47.98
2024-02-08T15:04:47.173Z,47.53
2024-02-08T15:07:52.750Z,48.04
2024-02-08T15:11:05.446Z,47.97
2024-02-08T15:14:08.538Z,48.10
2024-02-08T15:17:20.651Z,47.85
2024-02-08T15:20:44.988Z,48.19
2024-02-08T15:24:07.436Z,48.11
2024-02-08T15:27:19.390Z,48.31
2024-02-08T15:30:31.356Z,48.47
2024-02-08T15:33:33.785Z,48.44
2024-02-08T15:36:49.419Z,48.63
2024-02-08T15:40:10.947Z,48.71
2024-02-08T15:43:17.310Z,48.85
2024-02-08T15:46:21.707Z,48.53
2024-02-08T15:49:30.298Z,48.40
2024-02-08T15:52:35.949Z,48.89
2024-02-08T15:55:41.774Z,48.87
2024-02-08T15:58:46.557Z,48.94
2024-02-08T16:01:53.157Z,48.79
2024-02-08T16:05:13.632Z,49.11
2024-02-08T16:08:16.534Z,48.68
2024-02-08T16:11:21.779Z,49.04
2024-02-08T16:14:27.381Z,48.77
2024-02-08T16:17:32.916Z,48.63
2024-02-08T16:20:40.349Z,48.81
2024-02-08T16:23:48.398Z,48.74
2024-02-08T16:26:57.374Z,48.28
2024-02-08T16:30:09.784Z,48.02
2024-02-08T16:33:20.868Z,47.67
2024-02-08T16:36:28.248Z,47.56
2024-02-08T16:39:34.502Z,47.36
2024-02-08T16:42:37.346Z,47.08
2024-02-08T16:45:48.846Z,46.75
2024-02-08T16:48:55.497Z,46.50
2024-02-08T16:51:58.521Z,46.09
2024-02-08T16:55:02.351Z,45.96
2024-02-08T16:58:18.954Z,45.81
2024-02-08T17:01:31.041Z,45.78
2024-02-08T17:04:50.358Z,45.99
2024-02-08T17:07:53.574Z,45.61
2024-02-08T17:11:02.953Z,45.85
2024-02-08T17:14:09.719Z,45.64
2024-02-08T17:17:15.429Z,45.95
2024-02-08T17:20:38.933Z,45.52
2024-02-08T17:23:54.937Z,45.85
2024-02-08T17:27:01.168Z,46.36
2024-02-08T17:30:18.599Z,46.50
2024-02-08T17:33:21.511Z,47.67
2024-02-08T17:36:32.380Z,47.65
2024-02-08T17:39:43.741Z,47.93
2024-02-08T17:43:00.270Z,48.75
2024-02-08T17:46:06.049Z,49.20
2024-02-08T17:49:17.291Z,49.40
2024-02-08T17:52:24.841Z,50.29
2024-02-08T17:55:34.905Z,50.27
2024-02-08T17:58:37.667Z,50.83
2024-02-08T18:01:56.582Z,50.92
2024-02-08T18:05:02.546Z,51.22
2024-02-08T18:08:10.465Z,51.42
2024-02-08T18:11:17.523Z,51.29
2024-02-08T18:14:20.163Z,51.57
2024-02-08T18:17:26.417Z,51.13
2024-02-08T18:20:34.377Z,51.43
2024-02-08T18:23:37.029Z,51.36
2024-02-08T18:26:41.770Z,51.73
2024-02-08T18:29:46.361Z,51.71
2024-02-08T18:32:49.339Z,51.78
2024-02-08T18:35:54.499Z,51.86
2024-02-08T18:38:58.654Z,51.63
2024-02-08T18:42:03.295Z,51.32
2024-02-08T18:45:08.552Z,51.35
2024-02-08T18:48:12.831Z,51.40
2024-02-08T18:51:17.298Z,51.04
2024-02-08T18:54:30.102Z,51.15
2024-02-08T18:57:32.689Z,50.92
2024-02-08T19:00:35.121Z,50.43
2024-02-08T19:03:38.520Z,51.08
2024-02-08T19:06:41.049Z,50.62
2024-02-08T19:09:44.789Z,50.44
2024-02-08T19:12:53.043Z,51.01
2024-02-08T19:16:01.782Z,50.89
2024-02-08T19:19:04.946Z,51.19
2024-02-08T19:22:14.701Z,51.38
2024-02-08T19:25:22.887Z,51.54
2024-02-08T19:28:26.006Z,51.34
2024-02-08T19:31:29.233Z,51.22
2024-02-08T19:34:32.107Z,51.63
2024-02-08T19:37:35.019Z,51.32
2024-02-08T19:40:37.836Z,51.28
2024-02-08T19:43:40.752Z,51.43
2024-02-08T19:46:53.620Z,51.02
2024-02-08T19:50:07.148Z,51.47
2024-02-08T19:53:11.123Z,51.27
2024-02-08T19:56:19.930Z,51.06
2024-02-08T19:59:28.419Z,51.23
2024-02-08T20:02:35.745Z,51.51
2024-02-08T20:05:38.757Z,51.58
2024-02-08T20:08:46.205Z,51.64
2024-02-08T20:11:53.339Z,51.60
2024-02-08T20:14:58.164Z,51.95
2024-02-08T20:18:02.582Z,51.54
2024-02-08T20:21:05.483Z,51.70
2024-02-08T20:24:13.060Z,51.50
2024-02-08T20:27:16.188Z,51.68
2024-02-08T20:30:22.740Z,52.14
2024-02-08T20:33:32.346Z,51.82
2024-02-08T20:36:34.914Z,51.63
2024-02-08T20:39:37.388Z,51.63
2024-02-08T20:42:39.796Z,51.96
2024-02-08T20:45:42.538Z,51.88
2024-02-08T20:48:45.069Z,51.83
2024-02-08T20:51:53.728Z,51.88
2024-02-08T20:54:56.289Z,51.84
2024-02-08T20:57:58.817Z,51.62
2024-02-08T21:01:03.139Z,51.81
2024-02-08T21:04:09.321Z,51.57
2024-02-08T21:07:13.465Z,51.77
2024-02-08T21:10:23.757Z,52.22
2024-02-08T21:13:26.876Z,51.97
2024-02-08T21:16:31.164Z,51.74
2024-02-08T21:19:37.872Z,51.81
2024-02-08T21:22:41.261Z,52.10
2024-02-08T21:25:43.828Z,52.14
2024-02-08T21:28:52.224Z,52.00
2024-02-08T21:31:56.838Z,51.87
2024-02-08T21:34:59.471Z,52.04
2024-02-08T21:38:06.107Z,51.94
2024-02-08T21:41:08.621Z,51.90
2024-02-08T21:44:11.599Z,52.13
2024-02-08T21:47:17.353Z,52.26
2024-02-08T21:50:20.135Z,52.32
2024-02-08T21:53:22.515Z,52.18
2024-02-08T21:56:24.866Z,52.09
2024-02-08T21:59:29.567Z,52.08
2024-02-08T22:02:34.202Z,52.27
2024-02-08T22:05:36.800Z,52.17
2024-02-08T22:08:39.215Z,52.31
2024-02-08T22:11:48.967Z,52.40
2024-02-08T22:14:51.520Z,52.28
2024-02-08T22:17:53.978Z,52.28
2024-02-08T22:20:56.433Z,51.99
2024-02-08T22:23:58.822Z,52.47
2024-02-08T22:27:02.125Z,52.30
2024-02-08T22:30:11.279Z,52.30
2024-02-08T22:33:15.291Z,52.50
2024-02-08T22:36:17.802Z,52.29
2024-02-08T22:39:20.252Z,52.32
2024-02-08T22:42:24.366Z,52.32
2024-02-08T22:45:26.795Z,52.30
2024-02-08T22:48:29.152Z,52.49
2024-02-08T22:51:33.693Z,52.06
2024-02-08T22:54:36.038Z,52.53
2024-02-08T22:57:40.124Z,52.13
2024-02-08T23:00:51.692Z,52.09
2024-02-08T23:03:54.370Z,52.31
2024-02-08T23:06:57.003Z,52.44
2024-02-08T23:10:01.097Z,52.41
2024-02-08T23:13:04.565Z,52.44
2024-02-08T23:16:09.378Z,52.42
2024-02-08T23:19:13.549Z,52.64
2024-02-08T23:22:15.988Z,52.39
2024-02-08T23:25:18.488Z,52.42
2024-02-08T23:28:21.645Z,52.50
2024-02-08T23:31:29.165Z,52.67
2024-02-08T23:34:31.806Z,52.28
2024-02-08T23:37:34.348Z,52.32
2024-02-08T23:40:36.883Z,52.39
2024-02-08T23:43:39.526Z,52.35
2024-02-08T23:46:43.380Z,52.62
2024-02-08T23:49:45.894Z,52.49
2024-02-08T23:52:51.253Z,52.26
2024-02-08T23:55:56.120Z,52.66
2024-02-08T23:58:59.180Z,52.48
